createdAt,value
2017-12-04T00:02:24.766Z,67.15
2017-12-04T00:04:52.371Z,50.42
2017-12-04T00:07:20.783Z,48.58
2017-12-04T00:09:48.341Z,50.85
2017-12-04T00:12:15.970Z,54.25
2017-12-04T00:14:43.616Z,55.72
2017-12-04T00:17:11.222Z,54.30
2017-12-04T00:19:38.809Z,55.00
2017-12-04T00:22:06.460Z,51.33
2017-12-04T00:24:34.061Z,53.72
2017-12-04T00:27:01.705Z,59.33
2017-12-04T00:29:29.314Z,60.42
2017-12-04T00:31:57.675Z,55.75
2017-12-04T00:34:25.306Z,60.38
2017-12-04T00:36:52.949Z,55.72
2017-12-04T00:39:20.579Z,55.35
2017-12-04T00:41:48.209Z,61.37
2017-12-04T00:44:15.870Z,62.72
2017-12-04T00:46:43.518Z,55.47
2017-12-04T00:49:11.394Z,57.25
2017-12-04T00:51:39.043Z,59.88
2017-12-04T00:54:06.785Z,56.45
2017-12-04T00:56:34.460Z,60.33
2017-12-04T00:59:02.217Z,61.45
2017-12-04T01:01:29.908Z,66.03
2017-12-04T01:03:57.600Z,61.33
2017-12-04T01:06:25.955Z,62.88
2017-12-04T01:08:53.498Z,60.47
2017-12-04T01:11:21.831Z,72.00
2017-12-04T01:13:50.160Z,66.55
2017-12-04T01:16:17.722Z,64.43
2017-12-04T01:18:45.285Z,61.53
2017-12-04T01:21:12.842Z,60.63
2017-12-04T01:23:40.414Z,68.65
2017-12-04T01:26:07.988Z,66.65
2017-12-04T01:28:35.554Z,66.35
2017-12-04T01:31:03.119Z,64.28
2017-12-04T01:33:31.461Z,65.60
2017-12-04T01:35:59.009Z,63.00
2017-12-04T01:38:26.574Z,59.90
2017-12-04T01:40:54.119Z,55.95
2017-12-04T01:43:21.717Z,58.17
2017-12-04T01:45:49.273Z,61.67
2017-12-04T01:48:16.847Z,59.28
2017-12-04T01:50:44.394Z,57.00
2017-12-04T01:53:11.952Z,71.05
2017-12-04T01:55:39.548Z,61.90
2017-12-04T01:58:07.874Z,61.08
2017-12-04T02:00:35.436Z,58.87
2017-12-04T02:03:03.001Z,66.12
2017-12-04T02:05:30.542Z,62.45
2017-12-04T02:07:58.106Z,64.87
2017-12-04T02:10:25.667Z,68.00
2017-12-04T02:12:53.258Z,64.72
2017-12-04T02:15:20.844Z,59.45
2017-12-04T02:17:49.188Z,58.85
2017-12-04T02:20:16.790Z,61.50
2017-12-04T02:22:45.166Z,58.60
2017-12-04T02:25:13.594Z,69.10
2017-12-04T02:27:41.185Z,65.22
2017-12-04T02:30:08.811Z,61.55
2017-12-04T02:32:36.406Z,61.65
2017-12-04T02:35:04.023Z,67.37
2017-12-04T02:37:31.611Z,64.53
2017-12-04T02:39:59.201Z,64.65
2017-12-04T02:42:27.543Z,64.70
2017-12-04T02:44:55.189Z,62.42
2017-12-04T02:47:22.765Z,65.47
2017-12-04T02:49:50.385Z,68.82
2017-12-04T02:52:17.966Z,68.40
2017-12-04T02:54:45.557Z,62.60
2017-12-04T02:57:13.172Z,60.83
2017-12-04T02:59:40.818Z,62.20
2017-12-04T03:02:08.379Z,61.90
2017-12-04T03:04:35.948Z,62.28
2017-12-04T03:07:03.553Z,61.63
2017-12-04T03:09:31.131Z,63.67
2017-12-04T03:11:58.733Z,57.75
2017-12-04T03:14:26.309Z,69.78
2017-12-04T03:16:53.924Z,59.75
2017-12-04T03:19:21.495Z,63.08
2017-12-04T03:21:49.856Z,59.67
2017-12-04T03:24:17.438Z,62.28
2017-12-04T03:26:45.773Z,62.42
2017-12-04T03:29:14.093Z,67.62
2017-12-04T03:31:42.446Z,56.25
2017-12-04T03:34:10.005Z,63.78
2017-12-04T03:36:37.589Z,60.22
2017-12-04T03:39:05.158Z,61.17
2017-12-04T03:41:33.478Z,57.42
2017-12-04T03:44:01.028Z,57.05
2017-12-04T03:46:28.586Z,56.60
2017-12-04T03:48:56.173Z,64.20
2017-12-04T03:51:23.742Z,56.88
2017-12-04T03:53:51.317Z,57.38
2017-12-04T03:56:18.890Z,55.00
2017-12-04T03:58:47.256Z,54.40
2017-12-04T04:01:14.836Z,55.50
2017-12-04T04:03:43.179Z,59.55
2017-12-04T04:06:10.737Z,58.35
2017-12-04T04:08:38.287Z,56.78
2017-12-04T04:11:05.848Z,58.58
2017-12-04T04:13:33.421Z,55.47
2017-12-04T04:16:01.007Z,54.05
2017-12-04T04:18:29.387Z,53.87
2017-12-04T04:20:57.761Z,60.67
2017-12-04T04:23:26.125Z,58.17
2017-12-04T04:25:53.703Z,59.03
2017-12-04T04:28:22.048Z,57.47
2017-12-04T04:30:49.613Z,55.12
2017-12-04T04:33:17.179Z,53.03
2017-12-04T04:35:44.744Z,57.00
2017-12-04T04:38:12.319Z,51.67
2017-12-04T04:40:40.660Z,49.80
2017-12-04T04:43:08.241Z,52.72
2017-12-04T04:45:35.808Z,55.08
2017-12-04T04:48:03.391Z,50.72
2017-12-04T04:50:31.720Z,51.00
2017-12-04T04:52:59.305Z,50.10
2017-12-04T04:55:26.877Z,55.05
2017-12-04T04:57:55.210Z,49.80
2017-12-04T05:00:22.805Z,45.65
2017-12-04T05:02:50.361Z,50.58
2017-12-04T05:05:17.958Z,45.80
2017-12-04T05:07:45.505Z,49.35
2017-12-04T05:10:13.843Z,55.20
2017-12-04T05:12:41.424Z,49.22
2017-12-04T05:15:08.989Z,49.67
2017-12-04T05:17:37.327Z,51.90
2017-12-04T05:20:04.882Z,49.00
2017-12-04T05:22:32.517Z,51.65
2017-12-04T05:25:00.097Z,59.03
2017-12-04T05:27:27.689Z,54.22
2017-12-04T05:29:55.300Z,61.92
2017-12-04T05:32:22.882Z,79.37
2017-12-04T05:34:50.444Z,58.33
2017-12-04T05:37:18.073Z,56.75
2017-12-04T05:39:46.402Z,49.83
2017-12-04T05:42:13.987Z,54.00
2017-12-04T05:44:41.590Z,62.05
2017-12-04T05:47:09.172Z,52.58
2017-12-04T05:49:36.729Z,62.25
2017-12-04T05:52:04.317Z,67.25
2017-12-04T05:54:31.885Z,60.47
2017-12-04T05:56:59.451Z,59.08
2017-12-04T05:59:27.029Z,60.83
2017-12-04T06:01:55.365Z,58.55
2017-12-04T06:04:22.931Z,56.35
2017-12-04T06:06:50.499Z,55.95
2017-12-04T06:09:18.098Z,52.17
2017-12-04T06:11:45.680Z,53.53
2017-12-04T06:14:13.266Z,51.85
2017-12-04T06:16:40.829Z,49.83
2017-12-04T06:19:08.413Z,54.50
2017-12-04T06:21:36.754Z,54.83
2017-12-04T06:24:04.316Z,54.97
2017-12-04T06:26:31.895Z,61.65
2017-12-04T06:28:59.444Z,58.00
2017-12-04T06:31:27.010Z,59.60
2017-12-04T06:33:54.566Z,48.65
2017-12-04T06:36:22.151Z,55.03
2017-12-04T06:38:49.724Z,49.97
2017-12-04T06:41:18.120Z,54.05
2017-12-04T06:43:45.708Z,55.12
2017-12-04T06:46:13.300Z,49.20
2017-12-04T06:48:40.879Z,54.38
2017-12-04T06:51:09.214Z,50.70
2017-12-04T06:53:36.790Z,50.50
2017-12-04T06:56:04.395Z,54.15
2017-12-04T06:58:31.999Z,65.47
2017-12-04T07:00:59.569Z,55.25
2017-12-04T07:03:27.107Z,54.95
2017-12-04T07:05:54.674Z,54.85
2017-12-04T07:08:22.231Z,51.58
2017-12-04T07:10:49.807Z,65.97
2017-12-04T07:13:17.399Z,51.65
2017-12-04T07:15:45.789Z,60.80
2017-12-04T07:18:14.118Z,55.50
2017-12-04T07:20:41.674Z,61.03
2017-12-04T07:23:09.238Z,54.72
2017-12-04T07:25:36.823Z,54.72
2017-12-04T07:28:04.398Z,52.00
2017-12-04T07:30:32.741Z,52.22
2017-12-04T07:33:00.292Z,46.67
2017-12-04T07:35:27.866Z,49.83
2017-12-04T07:37:55.462Z,51.72
2017-12-04T07:40:23.827Z,46.92
2017-12-04T07:42:51.492Z,51.35
2017-12-04T07:45:19.057Z,52.30
2017-12-04T07:47:47.410Z,49.67
2017-12-04T07:50:15.004Z,47.03
2017-12-04T07:52:43.372Z,46.63
2017-12-04T07:55:11.753Z,45.78
2017-12-04T07:57:40.106Z,57.13
2017-12-04T08:00:07.735Z,54.25
2017-12-04T08:02:35.471Z,56.22
2017-12-04T08:05:03.108Z,46.45
2017-12-04T08:07:30.748Z,46.33
2017-12-04T08:09:58.378Z,60.12
2017-12-04T08:12:26.007Z,51.03
2017-12-04T08:14:53.578Z,58.63
2017-12-04T08:17:26.482Z,58.80
2017-12-04T08:19:54.078Z,44.53
2017-12-04T08:22:21.689Z,52.92
2017-12-04T08:24:50.020Z,52.62
2017-12-04T08:27:18.535Z,47.53
2017-12-04T08:29:46.916Z,44.55
2017-12-04T08:32:15.245Z,43.87
2017-12-04T08:34:42.857Z,46.17
2017-12-04T08:37:11.192Z,49.60
2017-12-04T08:39:38.757Z,41.53
2017-12-04T08:42:06.322Z,51.37
2017-12-04T08:44:33.948Z,51.53
2017-12-04T08:47:06.535Z,51.25
2017-12-04T08:49:34.091Z,44.33
2017-12-04T08:52:01.669Z,42.85
2017-12-04T08:54:29.244Z,47.75
2017-12-04T08:56:56.814Z,41.10
2017-12-04T08:59:24.399Z,44.03
2017-12-04T09:01:52.724Z,43.85
2017-12-04T09:04:20.299Z,45.47
2017-12-04T09:06:47.903Z,44.88
2017-12-04T09:09:16.404Z,44.60
2017-12-04T09:11:43.982Z,48.28
2017-12-04T09:14:11.542Z,47.92
2017-12-04T09:16:39.165Z,42.67
2017-12-04T09:19:07.504Z,38.88
2017-12-04T09:21:35.084Z,42.70
2017-12-04T09:24:02.645Z,48.22
2017-12-04T09:26:31.021Z,40.63
2017-12-04T09:28:58.598Z,43.72
2017-12-04T09:31:26.934Z,48.97
2017-12-04T09:33:54.514Z,44.63
2017-12-04T09:36:22.060Z,45.63
2017-12-04T09:38:49.634Z,45.35
2017-12-04T09:41:17.184Z,42.03
2017-12-04T09:43:44.766Z,42.25
2017-12-04T09:46:13.161Z,41.10
2017-12-04T09:48:41.481Z,38.72
2017-12-04T09:51:09.054Z,40.65
2017-12-04T09:53:36.607Z,42.22
2017-12-04T09:56:04.146Z,41.55
2017-12-04T09:58:31.701Z,45.80
2017-12-04T10:00:59.270Z,44.47
2017-12-04T10:03:26.825Z,39.58
2017-12-04T10:05:54.372Z,42.58
2017-12-04T10:08:21.929Z,43.70
2017-12-04T10:10:49.484Z,44.60
2017-12-04T10:13:17.808Z,41.90
2017-12-04T10:15:45.383Z,45.33
2017-12-04T10:18:12.945Z,41.90
2017-12-04T10:20:40.500Z,50.75
2017-12-04T10:23:08.098Z,52.42
2017-12-04T10:25:36.434Z,76.55
2017-12-04T10:28:03.969Z,75.50
2017-12-04T10:30:31.558Z,55.95
2017-12-04T10:32:59.102Z,41.03
2017-12-04T10:35:26.654Z,42.28
2017-12-04T10:37:54.986Z,45.92
2017-12-04T10:40:23.314Z,43.92
2017-12-04T10:42:50.874Z,44.10
2017-12-04T10:45:18.449Z,42.72
2017-12-04T10:47:46.013Z,45.17
2017-12-04T10:50:13.593Z,45.17
2017-12-04T10:52:41.175Z,38.92
2017-12-04T10:55:09.639Z,43.10
2017-12-04T10:57:38.003Z,38.70
2017-12-04T11:00:05.561Z,37.80
2017-12-04T11:02:33.187Z,40.00
2017-12-04T11:05:00.735Z,38.13
2017-12-04T11:07:28.325Z,38.90
2017-12-04T11:09:55.901Z,37.60
2017-12-04T11:12:23.473Z,41.20
2017-12-04T11:14:51.028Z,44.33
2017-12-04T11:17:18.593Z,41.13
2017-12-04T11:19:46.190Z,39.65
2017-12-04T11:22:13.744Z,38.33
2017-12-04T11:24:41.463Z,40.20
2017-12-04T11:27:09.038Z,37.40
2017-12-04T11:29:36.614Z,37.95
2017-12-04T11:32:04.923Z,34.13
2017-12-04T11:34:32.484Z,37.47
2017-12-04T11:37:00.043Z,37.30
2017-12-04T11:39:27.622Z,37.38
2017-12-04T11:41:55.191Z,45.63
2017-12-04T11:44:22.771Z,34.90
2017-12-04T11:46:50.314Z,42.92
2017-12-04T11:49:17.882Z,34.60
2017-12-04T11:51:45.495Z,37.78
2017-12-04T11:54:13.068Z,40.33
2017-12-04T11:56:40.616Z,36.53
2017-12-04T11:59:16.687Z,41.33
2017-12-04T12:01:44.269Z,36.25
2017-12-04T12:04:11.848Z,35.25
2017-12-04T12:06:42.784Z,38.33
2017-12-04T12:09:10.362Z,37.65
2017-12-04T12:11:37.920Z,37.97
2017-12-04T12:14:05.514Z,40.55
2017-12-04T12:16:33.106Z,42.53
2017-12-04T12:19:00.695Z,45.65
2017-12-04T12:21:28.830Z,41.17
2017-12-04T12:23:56.480Z,40.00
2017-12-04T12:26:28.220Z,39.08
2017-12-04T12:28:56.599Z,33.88
2017-12-04T12:31:24.916Z,41.83
2017-12-04T12:33:52.504Z,37.42
2017-12-04T12:36:20.067Z,42.03
2017-12-04T12:38:47.910Z,41.08
2017-12-04T12:41:15.682Z,41.22
2017-12-04T12:43:43.260Z,39.63
2017-12-04T12:46:10.834Z,41.65
2017-12-04T12:48:38.408Z,38.65
2017-12-04T12:51:06.762Z,46.92
2017-12-04T12:53:34.317Z,42.92
2017-12-04T12:56:01.936Z,45.78
2017-12-04T12:58:29.477Z,41.17
2017-12-04T13:00:57.814Z,42.22
2017-12-04T13:03:25.371Z,36.95
2017-12-04T13:05:52.961Z,53.15
2017-12-04T13:08:21.291Z,45.53
2017-12-04T13:10:48.875Z,44.72
2017-12-04T13:13:16.450Z,43.38
2017-12-04T13:15:44.035Z,44.63
2017-12-04T13:18:12.385Z,47.13
2017-12-04T13:20:40.412Z,61.47
2017-12-04T13:23:08.045Z,44.20
2017-12-04T13:25:38.161Z,67.62
2017-12-04T13:28:05.728Z,60.45
2017-12-04T13:30:34.055Z,53.87
2017-12-04T13:33:13.520Z,48.20
2017-12-04T13:35:53.435Z,49.33
2017-12-04T13:38:21.026Z,45.70
2017-12-04T13:40:48.612Z,60.90
2017-12-04T13:43:16.954Z,56.00
2017-12-04T13:45:44.727Z,62.53
2017-12-04T13:48:12.360Z,61.90
2017-12-04T13:50:39.930Z,58.10
2017-12-04T13:53:07.509Z,48.10
2017-12-04T13:55:35.071Z,65.28
2017-12-04T13:58:02.653Z,47.03
2017-12-04T14:00:30.969Z,49.10
2017-12-04T14:02:58.534Z,58.95
2017-12-04T14:05:27.003Z,80.97
2017-12-04T14:07:54.573Z,69.47
2017-12-04T14:10:22.964Z,52.47
2017-12-04T14:12:50.533Z,54.15
2017-12-04T14:15:18.081Z,46.28
2017-12-04T14:17:46.016Z,44.65
2017-12-04T14:20:14.948Z,48.28
2017-12-04T14:22:43.148Z,40.75
2017-12-04T14:25:10.725Z,45.12
2017-12-04T14:27:39.073Z,48.15
2017-12-04T14:30:07.340Z,52.88
2017-12-04T14:32:35.010Z,46.83
2017-12-04T14:35:02.605Z,48.80
2017-12-04T14:37:30.945Z,54.40
2017-12-04T14:39:58.516Z,47.65
2017-12-04T14:42:26.314Z,48.38
2017-12-04T14:44:55.217Z,52.75
2017-12-04T14:47:23.533Z,45.33
2017-12-04T14:49:51.077Z,50.67
2017-12-04T14:52:18.673Z,40.97
2017-12-04T14:54:46.610Z,41.17
2017-12-04T14:57:14.198Z,44.55
2017-12-04T14:59:41.756Z,43.00
2017-12-04T15:02:09.364Z,48.22
2017-12-04T15:04:37.682Z,40.92
2017-12-04T15:07:05.248Z,42.10
2017-12-04T15:09:32.825Z,46.10
2017-12-04T15:12:00.382Z,47.88
2017-12-04T15:14:27.996Z,45.75
2017-12-04T15:16:56.359Z,78.37
2017-12-04T15:19:24.866Z,91.47
2017-12-04T15:21:53.215Z,60.83
2017-12-04T15:24:21.545Z,55.33
2017-12-04T15:26:49.112Z,46.25
2017-12-04T15:29:16.994Z,48.60
2017-12-04T15:31:44.667Z,70.70
2017-12-04T15:34:12.270Z,54.38
2017-12-04T15:36:39.871Z,52.53
2017-12-04T15:39:07.422Z,56.03
2017-12-04T15:41:35.080Z,67.40
2017-12-04T15:44:02.699Z,56.47
2017-12-04T15:46:31.080Z,51.28
2017-12-04T15:48:58.652Z,51.63
2017-12-04T15:51:27.786Z,51.70
2017-12-04T15:53:55.500Z,47.15
2017-12-04T15:56:23.103Z,54.65
2017-12-04T15:58:50.644Z,52.85
2017-12-04T16:01:18.246Z,50.78
2017-12-04T16:03:45.919Z,49.45
2017-12-04T16:06:13.487Z,44.53
2017-12-04T16:08:41.081Z,50.53
2017-12-04T16:11:09.388Z,44.40
2017-12-04T16:13:38.146Z,47.65
2017-12-04T16:16:05.961Z,44.80
2017-12-04T16:18:33.566Z,47.88
2017-12-04T16:21:01.149Z,43.10
2017-12-04T16:23:30.232Z,45.92
2017-12-04T16:25:57.933Z,45.80
2017-12-04T16:28:26.361Z,48.50
2017-12-04T16:30:54.100Z,48.17
2017-12-04T16:35:57.813Z,42.15
2017-12-04T16:38:25.876Z,41.85
2017-12-04T16:40:53.487Z,43.53
2017-12-04T16:43:21.130Z,41.97
2017-12-04T16:45:48.794Z,41.17
2017-12-04T16:48:17.091Z,44.28
2017-12-04T16:50:45.716Z,46.15
2017-12-04T16:53:13.317Z,41.55
2017-12-04T16:55:40.927Z,47.05
2017-12-04T16:58:08.538Z,41.25
2017-12-04T17:00:38.118Z,49.13
2017-12-04T17:03:06.172Z,45.10
2017-12-04T17:05:33.847Z,43.63
2017-12-04T17:08:01.421Z,47.92
2017-12-04T17:10:28.990Z,47.45
2017-12-04T17:12:56.765Z,45.20
2017-12-04T17:15:24.369Z,48.50
2017-12-04T17:17:51.962Z,84.37
2017-12-04T17:20:19.556Z,57.97
2017-12-04T17:22:47.909Z,66.12
2017-12-04T17:25:15.509Z,63.63
2017-12-04T17:27:43.930Z,59.38
2017-12-04T17:30:11.510Z,47.95
2017-12-04T17:32:39.081Z,50.22
2017-12-04T17:35:06.675Z,54.25
2017-12-04T17:37:35.010Z,56.50
2017-12-04T17:40:02.582Z,60.15
2017-12-04T17:42:30.154Z,49.15
2017-12-04T17:44:57.702Z,63.90
2017-12-04T17:47:25.453Z,51.33
2017-12-04T17:49:53.017Z,50.47
2017-12-04T17:52:20.597Z,57.33
2017-12-04T17:54:48.151Z,55.17
2017-12-04T17:57:16.075Z,54.28
2017-12-04T17:59:43.737Z,45.47
2017-12-04T18:04:53.147Z,53.87
2017-12-04T18:07:21.837Z,47.75
2017-12-04T18:09:53.565Z,54.33
2017-12-04T18:12:25.184Z,48.30
2017-12-04T18:14:55.172Z,45.47
2017-12-04T18:17:23.562Z,50.83
2017-12-04T18:19:51.939Z,51.13
2017-12-04T18:22:20.273Z,48.58
2017-12-04T18:24:47.857Z,52.95
2017-12-04T18:27:16.036Z,38.30
2017-12-04T18:29:44.796Z,46.80
2017-12-04T18:32:15.048Z,44.83
2017-12-04T18:34:43.405Z,50.53
2017-12-04T18:37:10.993Z,43.63
2017-12-04T18:39:39.362Z,40.45
2017-12-04T18:42:07.059Z,43.33
2017-12-04T18:44:34.634Z,40.67
2017-12-04T18:47:02.205Z,43.67
2017-12-04T18:49:29.770Z,40.72
2017-12-04T18:51:57.742Z,40.92
2017-12-04T18:54:25.415Z,42.90
2017-12-04T18:56:53.298Z,41.88
2017-12-04T18:59:22.038Z,43.45
2017-12-04T19:01:52.461Z,40.63
2017-12-04T19:04:22.929Z,47.10
2017-12-04T19:07:03.550Z,49.13
2017-12-04T19:10:26.300Z,43.28
2017-12-04T19:12:57.290Z,39.03
2017-12-04T19:15:27.877Z,43.72
2017-12-04T19:20:54.052Z,45.20
2017-12-04T19:23:28.464Z,46.25
2017-12-04T19:26:07.790Z,48.15
2017-12-04T19:28:36.699Z,41.60
2017-12-04T19:31:04.272Z,53.95
2017-12-04T19:33:31.880Z,51.88
2017-12-04T19:36:08.961Z,67.78
2017-12-04T19:38:45.815Z,79.40
2017-12-04T19:43:52.430Z,64.03
2017-12-04T19:46:22.666Z,86.63
2017-12-04T19:48:50.880Z,98.50
2017-12-04T19:51:20.594Z,53.85
2017-12-04T19:53:52.039Z,57.38
2017-12-04T19:56:21.314Z,130.82
2017-12-04T19:58:52.350Z,77.28
2017-12-04T20:01:21.664Z,83.03
2017-12-04T20:03:50.139Z,64.32
2017-12-04T20:06:17.725Z,55.63
2017-12-04T20:08:46.047Z,56.00
2017-12-04T20:11:16.788Z,56.95
2017-12-04T20:13:44.596Z,63.58
2017-12-04T20:16:16.008Z,57.62
2017-12-04T20:18:45.624Z,54.05
2017-12-04T20:21:16.352Z,58.45
2017-12-04T20:23:47.115Z,64.82
2017-12-04T20:26:15.835Z,62.60
2017-12-04T20:28:46.484Z,57.80
2017-12-04T20:31:17.211Z,70.55
2017-12-04T20:33:46.089Z,63.30
2017-12-04T20:36:16.429Z,58.75
2017-12-04T20:38:45.692Z,57.38
2017-12-04T20:41:15.507Z,59.95
2017-12-04T20:43:46.859Z,51.33
2017-12-04T20:46:15.189Z,65.22
2017-12-04T20:48:43.198Z,82.05
2017-12-04T20:51:14.024Z,106.20
2017-12-04T20:53:44.090Z,71.43
2017-12-04T20:56:13.641Z,108.20
2017-12-04T20:58:44.390Z,109.32
2017-12-04T21:01:13.594Z,97.65
2017-12-04T21:03:44.546Z,76.78
2017-12-04T21:06:13.963Z,97.20
2017-12-04T21:09:02.434Z,89.60
2017-12-04T21:11:53.506Z,72.32
2017-12-04T21:14:33.750Z,95.85
2017-12-04T21:17:14.975Z,129.32
2017-12-04T21:19:43.422Z,65.45
2017-12-04T21:22:15.008Z,64.43
2017-12-04T21:24:44.035Z,90.22
2017-12-04T21:27:13.325Z,65.37
2017-12-04T21:29:43.308Z,70.60
2017-12-04T21:32:10.917Z,57.72
2017-12-04T21:34:38.514Z,76.15
2017-12-04T21:37:10.552Z,113.68
2017-12-04T21:39:38.194Z,77.25
2017-12-04T21:42:05.790Z,66.70
2017-12-04T21:44:35.342Z,104.30
2017-12-04T21:47:04.887Z,49.35
2017-12-04T21:49:36.522Z,71.10
2017-12-04T21:52:05.118Z,57.38
2017-12-04T21:54:33.961Z,49.70
2017-12-04T21:57:06.336Z,55.53
2017-12-04T21:59:33.905Z,57.70
2017-12-04T22:02:03.614Z,64.25
2017-12-04T22:04:34.969Z,67.12
2017-12-04T22:07:05.505Z,61.10
2017-12-04T22:09:36.061Z,64.07
2017-12-04T22:12:04.366Z,60.53
2017-12-04T22:14:34.581Z,57.03
2017-12-04T22:17:05.178Z,49.67
2017-12-04T22:19:33.928Z,52.25
2017-12-04T22:22:04.855Z,55.95
2017-12-04T22:24:33.624Z,64.45
2017-12-04T22:27:04.610Z,44.88
2017-12-04T22:29:32.223Z,42.60
2017-12-04T22:32:00.625Z,45.17
2017-12-04T22:34:28.849Z,42.85
2017-12-04T22:36:56.416Z,45.80
2017-12-04T22:39:25.114Z,60.67
2017-12-04T22:41:55.689Z,47.88
2017-12-04T22:44:25.382Z,50.35
2017-12-04T22:46:53.747Z,46.45
2017-12-04T22:49:23.510Z,50.45
2017-12-04T22:51:54.038Z,51.50
2017-12-04T22:54:23.712Z,53.03
2017-12-04T22:56:53.910Z,47.33
2017-12-04T22:59:23.403Z,48.50
2017-12-04T23:01:54.348Z,46.63
2017-12-04T23:04:23.200Z,38.40
2017-12-04T23:06:50.800Z,46.25
2017-12-04T23:09:18.385Z,43.17
2017-12-04T23:11:46.728Z,43.80
2017-12-04T23:14:14.295Z,43.78
2017-12-04T23:16:41.861Z,41.78
2017-12-04T23:19:09.426Z,44.92
2017-12-04T23:21:37.010Z,44.85
2017-12-04T23:24:05.334Z,43.50
2017-12-04T23:26:32.909Z,37.97
2017-12-04T23:29:00.494Z,42.65
2017-12-04T23:31:28.087Z,45.63
2017-12-04T23:33:55.663Z,47.90
2017-12-04T23:36:23.261Z,41.45
2017-12-04T23:38:50.830Z,49.40
2017-12-04T23:41:18.407Z,47.28
2017-12-04T23:43:46.746Z,40.55
2017-12-04T23:46:14.321Z,39.53
2017-12-04T23:48:41.880Z,43.60
2017-12-04T23:51:09.443Z,38.00
2017-12-04T23:53:37.007Z,39.80
2017-12-04T23:56:04.665Z,38.35
2017-12-04T23:58:32.377Z,39.10
